Time,TemperatureF,DewpointF,PressureIn,WindDirection,WindDirectionDegrees,WindSpeedMPH,WindSpeedGustMPH,Humidity,HourlyPrecipIn,Conditions,Clouds,dailyrainin,SoftwareType,DateUTC
2013-07-04 00:02:00,-999.0,-99.9,30.08,North,-999,-999.0,-999.0,-999,0.00,,,0.00,weatherlink.com 1.10,2013-07-04 04:02:00,
2013-07-04 00:17:00,-999.0,-99.9,30.08,North,-999,-999.0,-999.0,-999,0.00,,,0.00,weatherlink.com 1.10,2013-07-04 04:17:00,
2013-07-04 00:32:00,-999.0,-99.9,30.09,North,-999,-999.0,-999.0,-999,0.00,,,0.00,weatherlink.com 1.10,2013-07-04 04:32:00,
2013-07-04 00:47:00,-999.0,-99.9,30.09,North,-999,-999.0,-999.0,-999,0.00,,,0.00,weatherlink.com 1.10,2013-07-04 04:47:00,
2013-07-04 01:01:00,-999.0,-99.9,30.09,North,-999,-999.0,-999.0,-999,0.00,,,0.00,weatherlink.com 1.10,2013-07-04 05:01:00,
2013-07-04 01:17:00,-999.0,-99.9,30.09,North,-999,-999.0,-999.0,-999,0.00,,,0.00,weatherlink.com 1.10,2013-07-04 05:17:00,
2013-07-04 01:32:00,-999.0,-99.9,30.09,North,-999,-999.0,-999.0,-999,0.00,,,0.00,weatherlink.com 1.10,2013-07-04 05:32:00,
2013-07-04 01:47:00,-999.0,-99.9,30.09,North,-999,-999.0,-999.0,-999,0.00,,,0.00,weatherlink.com 1.10,2013-07-04 05:47:00,
2013-07-04 02:02:00,-999.0,-99.9,30.09,North,-999,-999.0,-999.0,-999,0.00,,,0.00,weatherlink.com 1.10,2013-07-04 06:02:00,
2013-07-04 02:17:00,-999.0,-99.9,30.08,North,-999,-999.0,-999.0,-999,0.00,,,0.00,weatherlink.com 1.10,2013-07-04 06:17:00,
2013-07-04 02:32:00,-999.0,-99.9,30.08,North,-999,-999.0,-999.0,-999,0.00,,,0.00,weatherlink.com 1.10,2013-07-04 06:32:00,
2013-07-04 02:48:00,-999.0,-99.9,30.08,North,-999,-999.0,-999.0,-999,0.00,,,0.00,weatherlink.com 1.10,2013-07-04 06:48:00,
2013-07-04 03:02:00,-999.0,-99.9,30.08,North,-999,-999.0,-999.0,-999,0.00,,,0.00,weatherlink.com 1.10,2013-07-04 07:02:00,
2013-07-04 03:17:00,-999.0,-99.9,30.08,North,-999,-999.0,-999.0,-999,0.00,,,0.00,weatherlink.com 1.10,2013-07-04 07:17:00,
2013-07-04 03:32:00,-999.0,-99.9,30.08,North,-999,-999.0,-999.0,-999,0.00,,,0.00,weatherlink.com 1.10,2013-07-04 07:32:00,
2013-07-04 03:47:00,-999.0,-99.9,30.08,North,-999,-999.0,-999.0,-999,0.00,,,0.00,weatherlink.com 1.10,2013-07-04 07:47:00,
2013-07-04 04:02:00,-999.0,-99.9,30.08,North,-999,-999.0,-999.0,-999,0.00,,,0.00,weatherlink.com 1.10,2013-07-04 08:02:00,
2013-07-04 04:18:00,-999.0,-99.9,30.09,North,-999,-999.0,-999.0,-999,0.00,,,0.00,weatherlink.com 1.10,2013-07-04 08:18:00,
2013-07-04 04:32:00,-999.0,-99.9,30.09,North,-999,-999.0,-999.0,-999,0.00,,,0.00,weatherlink.com 1.10,2013-07-04 08:32:00,
2013-07-04 04:48:00,-999.0,-99.9,30.09,North,-999,-999.0,-999.0,-999,0.00,,,0.00,weatherlink.com 1.10,2013-07-04 08:48:00,
2013-07-04 05:03:00,-999.0,-99.9,30.09,North,-999,-999.0,-999.0,-999,0.00,,,0.00,weatherlink.com 1.10,2013-07-04 09:03:00,
2013-07-04 05:18:00,-999.0,-99.9,30.09,North,-999,-999.0,-999.0,-999,0.00,,,0.00,weatherlink.com 1.10,2013-07-04 09:18:00,
2013-07-04 05:33:00,-999.0,-99.9,30.10,North,-999,-999.0,-999.0,-999,0.00,,,0.00,weatherlink.com 1.10,2013-07-04 09:33:00,
2013-07-04 05:48:00,-999.0,-99.9,30.10,North,-999,-999.0,-999.0,-999,0.00,,,0.00,weatherlink.com 1.10,2013-07-04 09:48:00,
2013-07-04 06:03:00,-999.0,-99.9,30.10,North,-999,-999.0,-999.0,-999,0.00,,,0.00,weatherlink.com 1.10,2013-07-04 10:03:00,
2013-07-04 06:19:00,-999.0,-99.9,30.11,North,-999,-999.0,-999.0,-999,0.00,,,0.00,weatherlink.com 1.10,2013-07-04 10:19:00,
2013-07-04 06:34:00,-999.0,-99.9,30.10,North,-999,-999.0,-999.0,-999,0.00,,,0.00,weatherlink.com 1.10,2013-07-04 10:34:00,
2013-07-04 06:48:00,-999.0,-99.9,30.11,North,-999,-999.0,-999.0,-999,0.00,,,0.00,weatherlink.com 1.10,2013-07-04 10:48:00,
2013-07-04 07:04:00,-999.0,-99.9,30.10,North,-999,-999.0,-999.0,-999,0.00,,,0.00,weatherlink.com 1.10,2013-07-04 11:04:00,
2013-07-04 07:18:00,-999.0,-99.9,30.11,North,-999,-999.0,-999.0,-999,0.00,,,0.00,weatherlink.com 1.10,2013-07-04 11:18:00,
2013-07-04 07:30:00,-999.0,-99.9,30.11,North,-999,-999.0,-999.0,-999,0.00,,,0.00,weatherlink.com 1.10,2013-07-04 11:30:00,
2013-07-04 07:46:00,-999.0,-99.9,30.11,North,-999,-999.0,-999.0,-999,0.00,,,0.00,weatherlink.com 1.10,2013-07-04 11:46:00,
2013-07-04 08:00:00,-999.0,-99.9,30.11,North,-999,-999.0,-999.0,-999,0.00,,,0.00,weatherlink.com 1.10,2013-07-04 12:00:00,
2013-07-04 08:16:00,-999.0,-99.9,30.11,North,-999,-999.0,-999.0,-999,0.00,,,0.00,weatherlink.com 1.10,2013-07-04 12:16:00,
2013-07-04 08:31:00,-999.0,-99.9,30.12,North,-999,-999.0,-999.0,-999,0.00,,,0.00,weatherlink.com 1.10,2013-07-04 12:31:00,
2013-07-04 08:46:00,-999.0,-99.9,30.11,North,-999,-999.0,-999.0,-999,0.00,,,0.00,weatherlink.com 1.10,2013-07-04 12:46:00,
2013-07-04 09:01:00,-999.0,-99.9,30.11,North,-999,-999.0,-999.0,-999,0.00,,,0.00,weatherlink.com 1.10,2013-07-04 13:01:00,
2013-07-04 09:16:00,-999.0,-99.9,30.11,North,-999,-999.0,-999.0,-999,0.00,,,0.00,weatherlink.com 1.10,2013-07-04 13:16:00,
2013-07-04 09:31:00,-999.0,-99.9,30.11,North,-999,-999.0,-999.0,-999,0.00,,,0.00,weatherlink.com 1.10,2013-07-04 13:31:00,
2013-07-04 09:46:00,-999.0,-99.9,30.11,North,-999,-999.0,-999.0,-999,0.00,,,0.00,weatherlink.com 1.10,2013-07-04 13:46:00,
2013-07-04 10:01:00,-999.0,-99.9,30.11,North,-999,-999.0,-999.0,-999,0.00,,,0.00,weatherlink.com 1.10,2013-07-04 14:01:00,
2013-07-04 10:17:00,-999.0,-99.9,30.11,North,-999,-999.0,-999.0,-999,0.00,,,0.00,weatherlink.com 1.10,2013-07-04 14:17:00,
2013-07-04 10:32:00,84.2,75.0,30.09,East,82,0.0,4.0,73,0.00,,,0.00,weatherlink.com 1.10,2013-07-04 14:32:00,
2013-07-04 10:46:00,84.8,75.0,30.09,SW,226,0.0,6.0,73,0.00,,,0.00,weatherlink.com 1.10,2013-07-04 14:46:00,
2013-07-04 11:02:00,85.0,75.0,30.09,SSW,200,2.0,7.0,71,0.00,,,0.00,weatherlink.com 1.10,2013-07-04 15:02:00,
2013-07-04 11:17:00,85.6,76.0,30.07,South,172,1.0,7.0,73,0.00,,,0.00,weatherlink.com 1.10,2013-07-04 15:17:00,
2013-07-04 11:32:00,86.0,75.0,30.06,SSW,194,0.0,6.0,69,0.00,,,0.00,weatherlink.com 1.10,2013-07-04 15:32:00,
2013-07-04 11:47:00,86.2,74.0,30.06,SSW,200,4.0,6.0,68,0.00,,,0.00,weatherlink.com 1.10,2013-07-04 15:47:00,
2013-07-04 12:02:00,86.6,74.0,30.05,SSW,193,1.0,7.0,67,0.00,,,0.00,weatherlink.com 1.10,2013-07-04 16:02:00,
2013-07-04 12:17:00,86.8,74.0,30.05,SSW,205,0.0,5.0,66,0.00,,,0.00,weatherlink.com 1.10,2013-07-04 16:17:00,
2013-07-04 12:32:00,87.1,74.0,30.05,SW,218,0.0,6.0,65,0.00,,,0.00,weatherlink.com 1.10,2013-07-04 16:32:00,
2013-07-04 12:46:00,87.5,75.0,30.05,SSE,168,3.0,5.0,67,0.00,,,0.00,weatherlink.com 1.10,2013-07-04 16:46:00,
2013-07-04 13:02:00,87.5,72.0,30.04,West,281,0.0,8.0,61,0.00,,,0.00,weatherlink.com 1.10,2013-07-04 17:02:00,
2013-07-04 13:17:00,88.1,75.0,30.03,South,172,0.0,8.0,65,0.00,,,0.00,weatherlink.com 1.10,2013-07-04 17:17:00,
2013-07-04 13:32:00,88.5,75.0,30.02,SE,140,0.0,5.0,64,0.00,,,0.00,weatherlink.com 1.10,2013-07-04 17:32:00,
2013-07-04 13:47:00,88.8,75.0,30.02,SSW,212,0.0,11.0,63,0.00,,,0.00,weatherlink.com 1.10,2013-07-04 17:47:00,
2013-07-04 14:02:00,88.3,74.0,30.01,South,189,4.0,5.0,62,0.00,,,0.00,weatherlink.com 1.10,2013-07-04 18:02:00,
2013-07-04 14:17:00,88.8,74.0,30.00,South,188,0.0,4.0,62,0.00,,,0.00,weatherlink.com 1.10,2013-07-04 18:17:00,
2013-07-04 14:32:00,88.9,73.0,30.00,SW,223,4.0,8.0,60,0.00,,,0.00,weatherlink.com 1.10,2013-07-04 18:32:00,
2013-07-04 14:47:00,89.5,74.0,30.00,SSW,207,0.0,5.0,60,0.00,,,0.00,weatherlink.com 1.10,2013-07-04 18:47:00,
2013-07-04 15:02:00,89.5,73.0,29.99,SSW,209,0.0,5.0,59,0.00,,,0.00,weatherlink.com 1.10,2013-07-04 19:02:00,
2013-07-04 15:17:00,89.4,75.0,29.99,SSW,195,0.0,4.0,62,0.00,,,0.00,weatherlink.com 1.10,2013-07-04 19:17:00,
2013-07-04 15:32:00,89.0,74.0,29.99,SSW,207,3.0,5.0,62,0.00,,,0.00,weatherlink.com 1.10,2013-07-04 19:32:00,
2013-07-04 15:47:00,88.9,74.0,29.98,SSW,208,1.0,4.0,62,0.00,,,0.00,weatherlink.com 1.10,2013-07-04 19:47:00,
2013-07-04 16:02:00,88.4,74.0,29.98,South,180,1.0,3.0,63,0.00,,,0.00,weatherlink.com 1.10,2013-07-04 20:02:00,
2013-07-04 16:17:00,87.6,74.0,29.98,SSW,201,0.0,6.0,64,0.00,,,0.00,weatherlink.com 1.10,2013-07-04 20:17:00,
2013-07-04 16:32:00,86.8,74.0,29.97,SSW,203,0.0,3.0,66,0.00,,,0.00,weatherlink.com 1.10,2013-07-04 20:32:00,
2013-07-04 16:48:00,86.7,74.0,29.98,NNW,337,1.0,4.0,65,0.00,,,0.00,weatherlink.com 1.10,2013-07-04 20:48:00,
2013-07-04 17:02:00,86.9,76.0,29.98,NNW,341,0.0,1.0,69,0.00,,,0.00,weatherlink.com 1.10,2013-07-04 21:02:00,
2013-07-04 17:17:00,85.7,74.0,29.98,SSW,193,0.0,3.0,68,0.00,,,0.00,weatherlink.com 1.10,2013-07-04 21:17:00,
2013-07-04 17:32:00,86.3,76.0,29.97,South,180,0.0,5.0,72,0.00,,,0.00,weatherlink.com 1.10,2013-07-04 21:32:00,
2013-07-04 17:47:00,85.6,75.0,29.96,SSE,164,1.0,5.0,70,0.00,,,0.00,weatherlink.com 1.10,2013-07-04 21:47:00,
2013-07-04 18:02:00,84.8,76.0,29.96,South,186,0.0,4.0,75,0.00,,,0.00,weatherlink.com 1.10,2013-07-04 22:02:00,
2013-07-04 18:17:00,85.9,77.0,29.96,South,186,0.0,1.0,74,0.00,,,0.00,weatherlink.com 1.10,2013-07-04 22:17:00,
2013-07-04 18:32:00,86.1,75.0,29.97,North,355,0.0,3.0,70,0.00,,,0.00,weatherlink.com 1.10,2013-07-04 22:32:00,
2013-07-04 18:47:00,85.8,77.0,29.97,North,355,0.0,0.0,74,0.00,,,0.00,weatherlink.com 1.10,2013-07-04 22:47:00,
2013-07-04 19:02:00,84.4,77.0,29.98,North,355,0.0,0.0,79,0.00,,,0.00,weatherlink.com 1.10,2013-07-04 23:02:00,
2013-07-04 19:17:00,83.6,78.0,29.98,North,355,0.0,1.0,82,0.00,,,0.00,weatherlink.com 1.10,2013-07-04 23:17:00,
2013-07-04 19:32:00,82.5,77.0,29.98,North,355,0.0,1.0,84,0.00,,,0.00,weatherlink.com 1.10,2013-07-04 23:32:00,
2013-07-04 19:48:00,81.2,77.0,29.98,North,355,0.0,0.0,86,0.00,,,0.00,weatherlink.com 1.10,2013-07-04 23:48:00,
2013-07-04 20:03:00,79.8,76.0,29.98,North,355,0.0,0.0,88,0.00,,,0.00,weatherlink.com 1.10,2013-07-05 00:03:00,
2013-07-04 20:18:00,78.7,76.0,29.98,North,355,0.0,0.0,91,0.00,,,0.00,weatherlink.com 1.10,2013-07-05 00:18:00,
2013-07-04 20:33:00,77.6,75.0,29.98,North,355,0.0,0.0,92,0.00,,,0.00,weatherlink.com 1.10,2013-07-05 00:33:00,
2013-07-04 20:48:00,77.0,75.0,29.98,North,355,0.0,0.0,94,0.00,,,0.00,weatherlink.com 1.10,2013-07-05 00:48:00,
2013-07-04 21:03:00,76.2,74.0,29.99,North,355,0.0,0.0,94,0.00,,,0.00,weatherlink.com 1.10,2013-07-05 01:03:00,
2013-07-04 21:18:00,75.7,74.0,29.99,North,355,0.0,1.0,94,0.00,,,0.00,weatherlink.com 1.10,2013-07-05 01:18:00,
2013-07-04 21:33:00,76.1,72.0,30.00,NNE,19,0.0,5.0,87,0.00,,,0.00,weatherlink.com 1.10,2013-07-05 01:33:00,
2013-07-04 21:48:00,76.0,72.0,30.01,NNW,343,0.0,4.0,86,0.00,,,0.00,weatherlink.com 1.10,2013-07-05 01:48:00,
2013-07-04 22:03:00,75.7,72.0,30.01,NNW,343,0.0,1.0,88,0.00,,,0.00,weatherlink.com 1.10,2013-07-05 02:03:00,
2013-07-04 22:18:00,75.1,72.0,30.01,NNW,343,0.0,1.0,89,0.00,,,0.00,weatherlink.com 1.10,2013-07-05 02:18:00,
2013-07-04 22:33:00,74.4,72.0,30.02,NNW,343,0.0,1.0,92,0.00,,,0.00,weatherlink.com 1.10,2013-07-05 02:33:00,
2013-07-04 22:48:00,73.7,72.0,30.01,NNW,342,0.0,1.0,93,0.00,,,0.00,weatherlink.com 1.10,2013-07-05 02:48:00,
2013-07-04 23:18:00,72.9,71.0,30.01,NNW,343,0.0,0.0,95,0.00,,,0.00,weatherlink.com 1.10,2013-07-05 03:18:00,
2013-07-04 23:33:00,72.5,71.0,30.02,NNW,343,0.0,1.0,95,0.00,,,0.00,weatherlink.com 1.10,2013-07-05 03:33:00,
2013-07-04 23:48:00,72.0,71.0,30.02,NNW,343,0.0,0.0,95,0.00,,,0.00,weatherlink.com 1.10,2013-07-05 03:48:00,